Terminal Aerodrome Forecast
Issued by NWS

Home | Current Version | Previous Version | Text Only | Print | Product List | Glossary On
Versions: 1 2 3 4 5 6 7 8 9 10 11 12 13 14
959
FTUS43 KAPX 241120
TAFMBL
TAF
KMBL 241120Z 2412/2512 20005KT P6SM -RA OVC035
     FM241500 23004KT 6SM -RA BR OVC025
     FM241700 33004KT 4SM -RA BR OVC025
     FM241900 01006KT 4SM -RA BR OVC015
     FM250000 04009KT 2SM -RA BR OVC010
     FM250600 06009KT 2SM RA OVC008=

USA.gov is the U.S. government's official web portal to all federal, state and local government web resources and services.